Terminal Aerodrome Forecast
Issued by NWS Cleveland, OH

Home | Current Version | Previous Version | Graphics & Text | Print | Product List | Glossary On
Versions: 1 2 3 4 5 6 7 8 9 10 11 12 13 14 15
000
FTUS41 KCLE 231700
TAFERI
TAF
KERI 231738Z 2318/2418 29014G22KT P6SM VCSH OVC030
      TEMPO 2319/2323 OVC035
     FM240900 30009KT P6SM BKN035=

USA.gov is the U.S. government's official web portal to all federal, state and local government web resources and services.